sensor_id;sensor_type;location;lat;lon;timestamp;P1;durP1;ratioP1;P2;durP2;ratioP2
19854;SDS011;10088;47.946;2.532;2022-11-30T00:00:18;30.40;;;15.37;;
19854;SDS011;10088;47.946;2.532;2022-11-30T00:02:44;32.73;;;17.47;;
19854;SDS011;10088;47.946;2.532;2022-11-30T00:05:09;31.10;;;16.20;;
19854;SDS011;10088;47.946;2.532;2022-11-30T00:07:35;32.23;;;17.17;;
19854;SDS011;10088;47.946;2.532;2022-11-30T00:10:00;26.03;;;16.63;;
19854;SDS011;10088;47.946;2.532;2022-11-30T00:12:27;33.67;;;16.53;;
19854;SDS011;10088;47.946;2.532;2022-11-30T00:14:52;30.30;;;16.00;;
19854;SDS011;10088;47.946;2.532;2022-11-30T00:17:17;25.70;;;13.80;;
19854;SDS011;10088;47.946;2.532;2022-11-30T00:19:43;26.77;;;12.37;;
19854;SDS011;10088;47.946;2.532;2022-11-30T00:22:08;28.03;;;12.90;;
19854;SDS011;10088;47.946;2.532;2022-11-30T00:24:33;27.07;;;13.10;;
19854;SDS011;10088;47.946;2.532;2022-11-30T00:26:59;18.17;;;10.03;;
19854;SDS011;10088;47.946;2.532;2022-11-30T00:29:24;24.97;;;12.53;;
19854;SDS011;10088;47.946;2.532;2022-11-30T00:31:49;23.07;;;11.63;;
19854;SDS011;10088;47.946;2.532;2022-11-30T00:34:14;21.17;;;10.90;;
19854;SDS011;10088;47.946;2.532;2022-11-30T00:36:40;26.17;;;12.17;;
19854;SDS011;10088;47.946;2.532;2022-11-30T00:39:05;23.23;;;12.03;;
19854;SDS011;10088;47.946;2.532;2022-11-30T00:41:30;23.17;;;12.03;;
19854;SDS011;10088;47.946;2.532;2022-11-30T00:43:56;15.97;;;10.30;;
19854;SDS011;10088;47.946;2.532;2022-11-30T00:46:21;18.53;;;9.80;;
19854;SDS011;10088;47.946;2.532;2022-11-30T00:48:46;19.73;;;9.57;;
19854;SDS011;10088;47.946;2.532;2022-11-30T00:51:11;19.87;;;9.60;;
19854;SDS011;10088;47.946;2.532;2022-11-30T00:53:37;16.47;;;9.37;;
19854;SDS011;10088;47.946;2.532;2022-11-30T00:56:03;17.43;;;10.30;;
19854;SDS011;10088;47.946;2.532;2022-11-30T00:58:29;21.50;;;9.60;;
19854;SDS011;10088;47.946;2.532;2022-11-30T01:00:54;15.43;;;6.97;;
19854;SDS011;10088;47.946;2.532;2022-11-30T01:03:19;10.93;;;7.37;;
19854;SDS011;10088;47.946;2.532;2022-11-30T01:05:44;12.03;;;6.70;;
19854;SDS011;10088;47.946;2.532;2022-11-30T01:08:10;9.73;;;7.40;;
19854;SDS011;10088;47.946;2.532;2022-11-30T01:10:36;11.43;;;7.07;;
19854;SDS011;10088;47.946;2.532;2022-11-30T01:13:02;13.67;;;7.27;;
19854;SDS011;10088;47.946;2.532;2022-11-30T01:15:28;12.77;;;7.00;;
19854;SDS011;10088;47.946;2.532;2022-11-30T01:17:53;12.97;;;7.07;;
19854;SDS011;10088;47.946;2.532;2022-11-30T01:20:18;9.23;;;6.67;;
19854;SDS011;10088;47.946;2.532;2022-11-30T01:22:44;13.37;;;7.70;;
19854;SDS011;10088;47.946;2.532;2022-11-30T01:25:09;13.33;;;8.33;;
19854;SDS011;10088;47.946;2.532;2022-11-30T01:27:34;11.93;;;7.20;;
19854;SDS011;10088;47.946;2.532;2022-11-30T01:30:01;12.33;;;7.30;;
19854;SDS011;10088;47.946;2.532;2022-11-30T01:32:26;14.70;;;8.33;;
19854;SDS011;10088;47.946;2.532;2022-11-30T01:34:51;13.63;;;8.30;;
19854;SDS011;10088;47.946;2.532;2022-11-30T01:37:17;12.60;;;7.37;;
19854;SDS011;10088;47.946;2.532;2022-11-30T01:39:42;13.90;;;8.20;;
19854;SDS011;10088;47.946;2.532;2022-11-30T01:42:14;12.73;;;7.87;;
19854;SDS011;10088;47.946;2.532;2022-11-30T01:44:51;17.40;;;8.70;;
19854;SDS011;10088;47.946;2.532;2022-11-30T01:47:17;10.63;;;7.77;;
19854;SDS011;10088;47.946;2.532;2022-11-30T01:49:45;13.33;;;7.90;;
19854;SDS011;10088;47.946;2.532;2022-11-30T01:52:12;14.70;;;7.87;;
19854;SDS011;10088;47.946;2.532;2022-11-30T01:59:51;13.30;;;7.43;;
19854;SDS011;10088;47.946;2.532;2022-11-30T02:02:21;20.67;;;8.23;;
19854;SDS011;10088;47.946;2.532;2022-11-30T02:04:50;16.00;;;8.93;;
19854;SDS011;10088;47.946;2.532;2022-11-30T02:07:15;15.47;;;8.07;;
19854;SDS011;10088;47.946;2.532;2022-11-30T02:09:41;16.80;;;8.57;;
19854;SDS011;10088;47.946;2.532;2022-11-30T02:12:10;18.60;;;9.00;;
19854;SDS011;10088;47.946;2.532;2022-11-30T02:14:38;13.37;;;7.63;;
19854;SDS011;10088;47.946;2.532;2022-11-30T02:30:15;9.13;;;6.77;;
19854;SDS011;10088;47.946;2.532;2022-11-30T02:33:27;17.17;;;7.83;;
19854;SDS011;10088;47.946;2.532;2022-11-30T02:35:28;13.30;;;8.23;;
19854;SDS011;10088;47.946;2.532;2022-11-30T02:37:55;11.23;;;8.20;;
19854;SDS011;10088;47.946;2.532;2022-11-30T02:40:21;12.40;;;7.33;;
19854;SDS011;10088;47.946;2.532;2022-11-30T02:42:47;10.47;;;7.43;;
19854;SDS011;10088;47.946;2.532;2022-11-30T02:45:13;10.27;;;7.63;;
19854;SDS011;10088;47.946;2.532;2022-11-30T02:47:47;14.60;;;6.63;;
19854;SDS011;10088;47.946;2.532;2022-11-30T02:50:16;14.50;;;7.67;;
19854;SDS011;10088;47.946;2.532;2022-11-30T02:52:42;8.67;;;6.63;;
19854;SDS011;10088;47.946;2.532;2022-11-30T02:55:09;12.77;;;6.50;;
19854;SDS011;10088;47.946;2.532;2022-11-30T02:57:35;7.63;;;6.20;;
19854;SDS011;10088;47.946;2.532;2022-11-30T03:00:01;10.07;;;6.27;;
19854;SDS011;10088;47.946;2.532;2022-11-30T03:02:26;10.70;;;6.43;;
19854;SDS011;10088;47.946;2.532;2022-11-30T03:04:52;9.70;;;6.80;;
19854;SDS011;10088;47.946;2.532;2022-11-30T03:07:17;7.67;;;5.43;;
19854;SDS011;10088;47.946;2.532;2022-11-30T03:09:42;9.80;;;6.43;;
19854;SDS011;10088;47.946;2.532;2022-11-30T03:12:07;8.27;;;6.40;;
19854;SDS011;10088;47.946;2.532;2022-11-30T03:14:33;8.60;;;6.57;;
19854;SDS011;10088;47.946;2.532;2022-11-30T03:16:58;9.67;;;6.57;;
19854;SDS011;10088;47.946;2.532;2022-11-30T03:19:23;11.27;;;7.17;;
19854;SDS011;10088;47.946;2.532;2022-11-30T03:21:49;10.73;;;7.40;;
19854;SDS011;10088;47.946;2.532;2022-11-30T03:24:14;10.77;;;7.77;;
19854;SDS011;10088;47.946;2.532;2022-11-30T03:26:39;9.53;;;7.70;;
19854;SDS011;10088;47.946;2.532;2022-11-30T03:29:05;13.27;;;7.73;;
19854;SDS011;10088;47.946;2.532;2022-11-30T03:31:30;12.27;;;7.83;;
19854;SDS011;10088;47.946;2.532;2022-11-30T03:33:55;12.73;;;7.20;;
19854;SDS011;10088;47.946;2.532;2022-11-30T03:36:20;13.37;;;7.17;;
19854;SDS011;10088;47.946;2.532;2022-11-30T03:38:46;12.50;;;7.63;;
19854;SDS011;10088;47.946;2.532;2022-11-30T03:41:13;11.90;;;7.70;;
19854;SDS011;10088;47.946;2.532;2022-11-30T03:43:39;13.37;;;7.90;;
19854;SDS011;10088;47.946;2.532;2022-11-30T03:46:04;13.27;;;8.30;;
19854;SDS011;10088;47.946;2.532;2022-11-30T03:48:30;16.00;;;8.93;;
19854;SDS011;10088;47.946;2.532;2022-11-30T03:50:55;15.47;;;8.70;;
19854;SDS011;10088;47.946;2.532;2022-11-30T03:53:21;16.47;;;8.67;;
19854;SDS011;10088;47.946;2.532;2022-11-30T03:55:54;13.80;;;8.67;;
19854;SDS011;10088;47.946;2.532;2022-11-30T03:58:20;14.57;;;8.70;;
19854;SDS011;10088;47.946;2.532;2022-11-30T04:00:46;14.67;;;8.67;;
19854;SDS011;10088;47.946;2.532;2022-11-30T04:03:11;15.33;;;8.87;;
19854;SDS011;10088;47.946;2.532;2022-11-30T04:05:37;18.40;;;8.73;;
19854;SDS011;10088;47.946;2.532;2022-11-30T04:08:02;15.10;;;9.00;;
19854;SDS011;10088;47.946;2.532;2022-11-30T04:10:27;16.73;;;9.00;;
19854;SDS011;10088;47.946;2.532;2022-11-30T04:12:52;15.80;;;9.43;;
19854;SDS011;10088;47.946;2.532;2022-11-30T04:15:18;16.70;;;8.80;;
19854;SDS011;10088;47.946;2.532;2022-11-30T04:17:43;15.37;;;9.30;;
19854;SDS011;10088;47.946;2.532;2022-11-30T04:20:09;11.73;;;8.90;;
19854;SDS011;10088;47.946;2.532;2022-11-30T04:22:34;14.13;;;9.30;;
19854;SDS011;10088;47.946;2.532;2022-11-30T04:25:00;16.80;;;10.00;;
19854;SDS011;10088;47.946;2.532;2022-11-30T04:27:26;16.37;;;10.00;;
19854;SDS011;10088;47.946;2.532;2022-11-30T04:29:52;13.67;;;9.53;;
19854;SDS011;10088;47.946;2.532;2022-11-30T04:32:17;14.97;;;8.90;;
19854;SDS011;10088;47.946;2.532;2022-11-30T04:34:42;13.40;;;8.83;;
19854;SDS011;10088;47.946;2.532;2022-11-30T04:37:07;16.67;;;9.50;;
19854;SDS011;10088;47.946;2.532;2022-11-30T04:39:33;12.97;;;8.73;;
19854;SDS011;10088;47.946;2.532;2022-11-30T04:41:58;15.50;;;9.90;;
19854;SDS011;10088;47.946;2.532;2022-11-30T04:44:23;12.73;;;8.73;;
19854;SDS011;10088;47.946;2.532;2022-11-30T04:46:49;14.10;;;9.50;;
19854;SDS011;10088;47.946;2.532;2022-11-30T04:49:14;16.97;;;9.93;;
19854;SDS011;10088;47.946;2.532;2022-11-30T04:51:39;16.97;;;10.87;;
19854;SDS011;10088;47.946;2.532;2022-11-30T04:54:04;13.57;;;9.53;;
19854;SDS011;10088;47.946;2.532;2022-11-30T04:56:30;14.30;;;9.37;;
19854;SDS011;10088;47.946;2.532;2022-11-30T04:58:55;14.77;;;10.00;;
19854;SDS011;10088;47.946;2.532;2022-11-30T05:01:20;14.77;;;9.87;;
19854;SDS011;10088;47.946;2.532;2022-11-30T05:03:46;15.93;;;10.00;;
19854;SDS011;10088;47.946;2.532;2022-11-30T05:06:11;16.63;;;10.27;;
19854;SDS011;10088;47.946;2.532;2022-11-30T05:08:36;12.47;;;8.67;;
19854;SDS011;10088;47.946;2.532;2022-11-30T05:11:01;16.30;;;9.83;;
19854;SDS011;10088;47.946;2.532;2022-11-30T05:13:27;15.20;;;10.23;;
19854;SDS011;10088;47.946;2.532;2022-11-30T05:15:52;16.47;;;9.93;;
19854;SDS011;10088;47.946;2.532;2022-11-30T05:18:18;14.00;;;9.30;;
19854;SDS011;10088;47.946;2.532;2022-11-30T05:20:49;14.10;;;8.80;;
19854;SDS011;10088;47.946;2.532;2022-11-30T05:23:15;13.13;;;8.60;;
19854;SDS011;10088;47.946;2.532;2022-11-30T05:25:41;13.33;;;8.83;;
19854;SDS011;10088;47.946;2.532;2022-11-30T05:28:07;14.90;;;8.63;;
19854;SDS011;10088;47.946;2.532;2022-11-30T05:30:32;11.03;;;8.43;;
19854;SDS011;10088;47.946;2.532;2022-11-30T05:32:57;12.10;;;8.17;;
19854;SDS011;10088;47.946;2.532;2022-11-30T05:35:22;14.13;;;8.73;;
19854;SDS011;10088;47.946;2.532;2022-11-30T05:37:48;11.53;;;9.20;;
19854;SDS011;10088;47.946;2.532;2022-11-30T05:40:13;11.37;;;8.67;;
19854;SDS011;10088;47.946;2.532;2022-11-30T05:42:38;13.67;;;9.10;;
19854;SDS011;10088;47.946;2.532;2022-11-30T05:45:04;11.10;;;8.83;;
19854;SDS011;10088;47.946;2.532;2022-11-30T05:47:29;13.57;;;9.53;;
19854;SDS011;10088;47.946;2.532;2022-11-30T05:49:55;13.17;;;9.07;;
19854;SDS011;10088;47.946;2.532;2022-11-30T05:52:20;13.07;;;8.17;;
19854;SDS011;10088;47.946;2.532;2022-11-30T05:54:45;13.07;;;8.73;;
19854;SDS011;10088;47.946;2.532;2022-11-30T05:57:10;14.80;;;9.00;;
19854;SDS011;10088;47.946;2.532;2022-11-30T05:59:36;15.20;;;8.60;;
19854;SDS011;10088;47.946;2.532;2022-11-30T06:02:01;14.77;;;8.47;;
19854;SDS011;10088;47.946;2.532;2022-11-30T06:04:26;12.57;;;7.67;;
19854;SDS011;10088;47.946;2.532;2022-11-30T06:06:52;10.27;;;7.07;;
19854;SDS011;10088;47.946;2.532;2022-11-30T06:09:19;10.53;;;7.00;;
19854;SDS011;10088;47.946;2.532;2022-11-30T06:11:45;10.97;;;6.60;;
19854;SDS011;10088;47.946;2.532;2022-11-30T06:14:10;8.23;;;5.70;;
19854;SDS011;10088;47.946;2.532;2022-11-30T06:16:36;8.73;;;5.77;;
19854;SDS011;10088;47.946;2.532;2022-11-30T06:19:02;8.87;;;5.70;;
19854;SDS011;10088;47.946;2.532;2022-11-30T06:21:27;11.43;;;5.47;;
19854;SDS011;10088;47.946;2.532;2022-11-30T06:23:52;10.70;;;5.67;;
19854;SDS011;10088;47.946;2.532;2022-11-30T06:26:18;9.67;;;6.43;;
19854;SDS011;10088;47.946;2.532;2022-11-30T06:28:43;11.73;;;6.97;;
19854;SDS011;10088;47.946;2.532;2022-11-30T06:31:09;8.47;;;5.73;;
19854;SDS011;10088;47.946;2.532;2022-11-30T06:33:35;8.47;;;5.80;;
19854;SDS011;10088;47.946;2.532;2022-11-30T06:36:00;7.80;;;5.87;;
19854;SDS011;10088;47.946;2.532;2022-11-30T06:38:26;8.30;;;5.93;;
19854;SDS011;10088;47.946;2.532;2022-11-30T06:40:51;8.23;;;5.97;;
19854;SDS011;10088;47.946;2.532;2022-11-30T06:43:17;8.53;;;6.43;;
19854;SDS011;10088;47.946;2.532;2022-11-30T06:45:43;10.30;;;5.80;;
19854;SDS011;10088;47.946;2.532;2022-11-30T06:48:09;11.13;;;5.70;;
19854;SDS011;10088;47.946;2.532;2022-11-30T06:50:34;8.97;;;5.93;;
19854;SDS011;10088;47.946;2.532;2022-11-30T06:52:59;8.43;;;6.30;;
19854;SDS011;10088;47.946;2.532;2022-11-30T06:55:25;9.20;;;6.17;;
19854;SDS011;10088;47.946;2.532;2022-11-30T06:57:50;8.47;;;5.97;;
19854;SDS011;10088;47.946;2.532;2022-11-30T07:00:15;7.60;;;5.83;;
19854;SDS011;10088;47.946;2.532;2022-11-30T07:02:41;9.00;;;6.03;;
19854;SDS011;10088;47.946;2.532;2022-11-30T07:05:06;13.20;;;5.90;;
19854;SDS011;10088;47.946;2.532;2022-11-30T07:07:31;6.60;;;4.73;;
19854;SDS011;10088;47.946;2.532;2022-11-30T07:09:57;9.70;;;5.43;;
19854;SDS011;10088;47.946;2.532;2022-11-30T07:12:23;7.53;;;5.30;;
19854;SDS011;10088;47.946;2.532;2022-11-30T07:14:48;9.83;;;5.50;;
19854;SDS011;10088;47.946;2.532;2022-11-30T07:17:19;10.57;;;6.53;;
19854;SDS011;10088;47.946;2.532;2022-11-30T07:19:44;10.40;;;5.67;;
19854;SDS011;10088;47.946;2.532;2022-11-30T07:22:11;17.97;;;6.80;;
19854;SDS011;10088;47.946;2.532;2022-11-30T07:24:36;10.67;;;5.67;;
19854;SDS011;10088;47.946;2.532;2022-11-30T07:27:20;12.47;;;6.30;;
19854;SDS011;10088;47.946;2.532;2022-11-30T07:29:45;12.27;;;6.20;;
19854;SDS011;10088;47.946;2.532;2022-11-30T07:32:13;15.27;;;6.33;;
19854;SDS011;10088;47.946;2.532;2022-11-30T07:34:38;8.00;;;6.00;;
19854;SDS011;10088;47.946;2.532;2022-11-30T07:37:03;7.63;;;5.90;;
19854;SDS011;10088;47.946;2.532;2022-11-30T07:39:29;11.83;;;6.57;;
19854;SDS011;10088;47.946;2.532;2022-11-30T07:41:54;7.63;;;5.60;;
19854;SDS011;10088;47.946;2.532;2022-11-30T07:44:19;9.50;;;6.43;;
19854;SDS011;10088;47.946;2.532;2022-11-30T07:46:44;11.07;;;5.77;;
19854;SDS011;10088;47.946;2.532;2022-11-30T07:49:10;13.77;;;6.73;;
19854;SDS011;10088;47.946;2.532;2022-11-30T07:51:35;8.30;;;6.63;;
19854;SDS011;10088;47.946;2.532;2022-11-30T07:54:00;12.37;;;6.33;;
19854;SDS011;10088;47.946;2.532;2022-11-30T07:56:26;31.93;;;19.07;;
19854;SDS011;10088;47.946;2.532;2022-11-30T07:58:56;10.30;;;6.60;;
19854;SDS011;10088;47.946;2.532;2022-11-30T08:01:22;14.60;;;7.93;;
19854;SDS011;10088;47.946;2.532;2022-11-30T08:03:48;10.17;;;6.30;;
19854;SDS011;10088;47.946;2.532;2022-11-30T08:06:15;10.93;;;6.63;;
19854;SDS011;10088;47.946;2.532;2022-11-30T08:08:42;15.03;;;6.97;;
19854;SDS011;10088;47.946;2.532;2022-11-30T08:11:09;8.60;;;6.27;;
19854;SDS011;10088;47.946;2.532;2022-11-30T08:13:34;11.77;;;7.17;;
19854;SDS011;10088;47.946;2.532;2022-11-30T08:16:00;10.03;;;7.30;;
19854;SDS011;10088;47.946;2.532;2022-11-30T08:18:25;8.83;;;5.87;;
19854;SDS011;10088;47.946;2.532;2022-11-30T08:20:57;15.17;;;6.93;;
19854;SDS011;10088;47.946;2.532;2022-11-30T08:23:24;13.33;;;7.17;;
19854;SDS011;10088;47.946;2.532;2022-11-30T08:25:49;7.63;;;6.27;;
19854;SDS011;10088;47.946;2.532;2022-11-30T08:28:15;10.87;;;6.63;;
19854;SDS011;10088;47.946;2.532;2022-11-30T08:30:40;10.83;;;6.17;;
19854;SDS011;10088;47.946;2.532;2022-11-30T08:33:05;10.87;;;6.90;;
19854;SDS011;10088;47.946;2.532;2022-11-30T08:35:31;8.47;;;5.90;;
19854;SDS011;10088;47.946;2.532;2022-11-30T08:37:56;12.23;;;7.40;;
19854;SDS011;10088;47.946;2.532;2022-11-30T08:40:21;10.60;;;6.87;;
19854;SDS011;10088;47.946;2.532;2022-11-30T08:42:47;9.77;;;6.23;;
19854;SDS011;10088;47.946;2.532;2022-11-30T08:45:12;9.23;;;6.77;;
19854;SDS011;10088;47.946;2.532;2022-11-30T08:47:37;8.83;;;6.53;;
19854;SDS011;10088;47.946;2.532;2022-11-30T08:50:03;10.23;;;7.50;;
19854;SDS011;10088;47.946;2.532;2022-11-30T08:52:28;12.77;;;7.60;;
19854;SDS011;10088;47.946;2.532;2022-11-30T08:54:54;9.37;;;6.33;;
19854;SDS011;10088;47.946;2.532;2022-11-30T08:57:19;8.47;;;7.30;;
19854;SDS011;10088;47.946;2.532;2022-11-30T08:59:45;9.73;;;6.73;;
19854;SDS011;10088;47.946;2.532;2022-11-30T09:02:11;10.60;;;7.63;;
19854;SDS011;10088;47.946;2.532;2022-11-30T09:04:37;13.37;;;7.37;;
19854;SDS011;10088;47.946;2.532;2022-11-30T09:07:03;10.93;;;7.13;;
19854;SDS011;10088;47.946;2.532;2022-11-30T09:09:29;11.57;;;7.93;;
19854;SDS011;10088;47.946;2.532;2022-11-30T09:11:54;13.13;;;8.77;;
19854;SDS011;10088;47.946;2.532;2022-11-30T09:14:19;14.97;;;7.30;;
19854;SDS011;10088;47.946;2.532;2022-11-30T09:16:45;10.73;;;7.20;;
19854;SDS011;10088;47.946;2.532;2022-11-30T09:19:10;13.47;;;7.73;;
19854;SDS011;10088;47.946;2.532;2022-11-30T09:21:35;14.17;;;8.03;;
19854;SDS011;10088;47.946;2.532;2022-11-30T09:24:01;12.47;;;8.07;;
19854;SDS011;10088;47.946;2.532;2022-11-30T09:26:26;10.97;;;8.53;;
19854;SDS011;10088;47.946;2.532;2022-11-30T09:28:52;11.80;;;8.33;;
19854;SDS011;10088;47.946;2.532;2022-11-30T09:31:18;9.73;;;7.50;;
19854;SDS011;10088;47.946;2.532;2022-11-30T09:33:44;15.47;;;8.33;;
19854;SDS011;10088;47.946;2.532;2022-11-30T09:36:11;10.53;;;7.73;;
19854;SDS011;10088;47.946;2.532;2022-11-30T09:38:37;12.83;;;8.23;;
19854;SDS011;10088;47.946;2.532;2022-11-30T09:41:09;12.30;;;8.07;;
19854;SDS011;10088;47.946;2.532;2022-11-30T09:46:20;13.63;;;8.83;;
19854;SDS011;10088;47.946;2.532;2022-11-30T09:49:04;14.17;;;8.10;;
19854;SDS011;10088;47.946;2.532;2022-11-30T09:54:01;11.97;;;7.97;;
19854;SDS011;10088;47.946;2.532;2022-11-30T09:56:32;11.57;;;7.63;;
19854;SDS011;10088;47.946;2.532;2022-11-30T10:01:23;18.73;;;15.50;;
19854;SDS011;10088;47.946;2.532;2022-11-30T10:03:48;10.33;;;7.30;;
19854;SDS011;10088;47.946;2.532;2022-11-30T10:06:17;13.03;;;8.00;;
19854;SDS011;10088;47.946;2.532;2022-11-30T10:16:45;17.40;;;8.73;;
19854;SDS011;10088;47.946;2.532;2022-11-30T10:19:27;14.07;;;10.23;;
19854;SDS011;10088;47.946;2.532;2022-11-30T10:26:54;12.20;;;8.20;;
19854;SDS011;10088;47.946;2.532;2022-11-30T10:29:24;13.80;;;8.40;;
19854;SDS011;10088;47.946;2.532;2022-11-30T10:31:52;11.10;;;8.10;;
19854;SDS011;10088;47.946;2.532;2022-11-30T10:36:46;13.00;;;9.10;;
19854;SDS011;10088;47.946;2.532;2022-11-30T10:39:16;13.30;;;8.00;;
19854;SDS011;10088;47.946;2.532;2022-11-30T10:41:45;12.77;;;7.97;;
19854;SDS011;10088;47.946;2.532;2022-11-30T10:44:14;15.47;;;8.30;;
19854;SDS011;10088;47.946;2.532;2022-11-30T10:46:42;12.13;;;8.50;;
19854;SDS011;10088;47.946;2.532;2022-11-30T10:49:14;13.20;;;10.47;;
19854;SDS011;10088;47.946;2.532;2022-11-30T10:51:41;13.03;;;8.33;;
19854;SDS011;10088;47.946;2.532;2022-11-30T10:54:15;14.77;;;11.47;;
19854;SDS011;10088;47.946;2.532;2022-11-30T10:56:41;10.50;;;8.70;;
19854;SDS011;10088;47.946;2.532;2022-11-30T10:59:23;12.33;;;8.13;;
19854;SDS011;10088;47.946;2.532;2022-11-30T11:01:49;9.63;;;7.43;;
19854;SDS011;10088;47.946;2.532;2022-11-30T11:04:23;13.37;;;7.80;;
19854;SDS011;10088;47.946;2.532;2022-11-30T11:06:49;11.10;;;7.90;;
19854;SDS011;10088;47.946;2.532;2022-11-30T11:09:23;11.73;;;7.70;;
19854;SDS011;10088;47.946;2.532;2022-11-30T11:11:55;12.07;;;7.83;;
19854;SDS011;10088;47.946;2.532;2022-11-30T11:14:22;11.97;;;7.47;;
19854;SDS011;10088;47.946;2.532;2022-11-30T11:17:33;10.57;;;7.90;;
19854;SDS011;10088;47.946;2.532;2022-11-30T11:19:38;10.70;;;7.37;;
19854;SDS011;10088;47.946;2.532;2022-11-30T11:22:25;10.00;;;7.40;;
19854;SDS011;10088;47.946;2.532;2022-11-30T11:24:50;12.57;;;7.97;;
19854;SDS011;10088;47.946;2.532;2022-11-30T11:27:18;9.90;;;7.50;;
19854;SDS011;10088;47.946;2.532;2022-11-30T11:54:32;10.93;;;7.53;;
19854;SDS011;10088;47.946;2.532;2022-11-30T12:00:53;10.97;;;8.80;;
19854;SDS011;10088;47.946;2.532;2022-11-30T12:03:55;14.07;;;9.20;;
19854;SDS011;10088;47.946;2.532;2022-11-30T12:31:23;14.27;;;8.10;;
19854;SDS011;10088;47.946;2.532;2022-11-30T12:39:14;18.80;;;9.40;;
19854;SDS011;10088;47.946;2.532;2022-11-30T12:46:36;13.23;;;8.20;;
19854;SDS011;10088;47.946;2.532;2022-11-30T12:51:52;16.47;;;9.97;;
19854;SDS011;10088;47.946;2.532;2022-11-30T12:54:25;20.30;;;10.47;;
19854;SDS011;10088;47.946;2.532;2022-11-30T12:57:09;17.30;;;10.63;;
19854;SDS011;10088;47.946;2.532;2022-11-30T12:59:49;18.60;;;10.93;;
19854;SDS011;10088;47.946;2.532;2022-11-30T13:05:03;18.77;;;11.87;;
19854;SDS011;10088;47.946;2.532;2022-11-30T13:07:36;24.73;;;12.23;;
19854;SDS011;10088;47.946;2.532;2022-11-30T13:10:12;18.30;;;11.27;;
19854;SDS011;10088;47.946;2.532;2022-11-30T13:12:41;22.43;;;12.30;;
19854;SDS011;10088;47.946;2.532;2022-11-30T13:15:18;19.57;;;12.23;;
19854;SDS011;10088;47.946;2.532;2022-11-30T13:17:45;22.57;;;11.57;;
19854;SDS011;10088;47.946;2.532;2022-11-30T13:32:54;19.00;;;11.27;;
19854;SDS011;10088;47.946;2.532;2022-11-30T13:38:04;20.10;;;10.73;;
19854;SDS011;10088;47.946;2.532;2022-11-30T13:40:30;19.73;;;11.07;;
19854;SDS011;10088;47.946;2.532;2022-11-30T13:42:55;20.30;;;11.87;;
19854;SDS011;10088;47.946;2.532;2022-11-30T13:45:31;17.70;;;10.00;;
19854;SDS011;10088;47.946;2.532;2022-11-30T13:47:57;17.23;;;9.87;;
19854;SDS011;10088;47.946;2.532;2022-11-30T13:50:25;15.43;;;9.60;;
19854;SDS011;10088;47.946;2.532;2022-11-30T13:58:09;15.50;;;9.97;;
19854;SDS011;10088;47.946;2.532;2022-11-30T14:03:17;16.67;;;10.67;;
19854;SDS011;10088;47.946;2.532;2022-11-30T14:05:54;15.83;;;9.50;;
19854;SDS011;10088;47.946;2.532;2022-11-30T14:10:45;16.93;;;9.33;;
19854;SDS011;10088;47.946;2.532;2022-11-30T14:18:24;18.23;;;9.70;;
19854;SDS011;10088;47.946;2.532;2022-11-30T14:23:25;17.53;;;9.77;;
19854;SDS011;10088;47.946;2.532;2022-11-30T14:25:52;13.90;;;9.50;;
19854;SDS011;10088;47.946;2.532;2022-11-30T14:28:32;16.67;;;10.40;;
19854;SDS011;10088;47.946;2.532;2022-11-30T14:30:58;18.17;;;10.17;;
19854;SDS011;10088;47.946;2.532;2022-11-30T14:33:26;17.80;;;9.93;;
19854;SDS011;10088;47.946;2.532;2022-11-30T14:35:53;17.30;;;10.20;;
19854;SDS011;10088;47.946;2.532;2022-11-30T14:38:29;16.73;;;10.43;;
19854;SDS011;10088;47.946;2.532;2022-11-30T14:40:56;17.23;;;11.13;;
19854;SDS011;10088;47.946;2.532;2022-11-30T14:43:22;16.87;;;10.70;;
19854;SDS011;10088;47.946;2.532;2022-11-30T14:48:22;15.83;;;11.23;;
19854;SDS011;10088;47.946;2.532;2022-11-30T14:50:48;14.73;;;9.90;;
19854;SDS011;10088;47.946;2.532;2022-11-30T14:53:19;15.93;;;10.20;;
19854;SDS011;10088;47.946;2.532;2022-11-30T14:55:50;19.37;;;11.30;;
19854;SDS011;10088;47.946;2.532;2022-11-30T15:00:42;15.63;;;10.00;;
19854;SDS011;10088;47.946;2.532;2022-11-30T15:06:04;12.57;;;10.10;;
19854;SDS011;10088;47.946;2.532;2022-11-30T15:11:00;20.43;;;10.63;;
19854;SDS011;10088;47.946;2.532;2022-11-30T15:13:27;17.57;;;10.87;;
19854;SDS011;10088;47.946;2.532;2022-11-30T15:15:53;17.27;;;10.37;;
19854;SDS011;10088;47.946;2.532;2022-11-30T15:18:19;12.80;;;9.50;;
19854;SDS011;10088;47.946;2.532;2022-11-30T15:20:47;14.53;;;8.87;;
19854;SDS011;10088;47.946;2.532;2022-11-30T15:23:14;13.30;;;8.53;;
19854;SDS011;10088;47.946;2.532;2022-11-30T15:25:43;11.60;;;8.30;;
19854;SDS011;10088;47.946;2.532;2022-11-30T15:28:10;15.37;;;9.23;;
19854;SDS011;10088;47.946;2.532;2022-11-30T15:30:37;17.40;;;9.50;;
19854;SDS011;10088;47.946;2.532;2022-11-30T15:33:03;14.13;;;9.50;;
19854;SDS011;10088;47.946;2.532;2022-11-30T15:35:28;15.17;;;9.13;;
19854;SDS011;10088;47.946;2.532;2022-11-30T15:37:54;17.80;;;8.77;;
19854;SDS011;10088;47.946;2.532;2022-11-30T15:40:30;13.53;;;9.20;;
19854;SDS011;10088;47.946;2.532;2022-11-30T15:42:56;15.30;;;9.50;;
19854;SDS011;10088;47.946;2.532;2022-11-30T15:45:31;16.70;;;8.53;;
19854;SDS011;10088;47.946;2.532;2022-11-30T15:47:59;18.33;;;9.30;;
19854;SDS011;10088;47.946;2.532;2022-11-30T15:52:57;16.47;;;9.73;;
19854;SDS011;10088;47.946;2.532;2022-11-30T15:55:39;18.37;;;10.40;;
19854;SDS011;10088;47.946;2.532;2022-11-30T15:58:04;22.07;;;10.37;;
19854;SDS011;10088;47.946;2.532;2022-11-30T16:00:29;16.27;;;10.43;;
19854;SDS011;10088;47.946;2.532;2022-11-30T16:03:08;19.57;;;11.00;;
19854;SDS011;10088;47.946;2.532;2022-11-30T16:05:33;17.30;;;11.00;;
19854;SDS011;10088;47.946;2.532;2022-11-30T16:07:59;16.60;;;9.53;;
19854;SDS011;10088;47.946;2.532;2022-11-30T16:10:34;13.33;;;9.53;;
19854;SDS011;10088;47.946;2.532;2022-11-30T16:12:59;16.60;;;9.83;;
19854;SDS011;10088;47.946;2.532;2022-11-30T16:15:26;19.03;;;11.33;;
19854;SDS011;10088;47.946;2.532;2022-11-30T16:17:56;14.13;;;10.13;;
19854;SDS011;10088;47.946;2.532;2022-11-30T16:20:23;21.07;;;11.80;;
19854;SDS011;10088;47.946;2.532;2022-11-30T16:22:49;18.67;;;11.73;;
19854;SDS011;10088;47.946;2.532;2022-11-30T16:25:15;22.03;;;11.57;;
19854;SDS011;10088;47.946;2.532;2022-11-30T16:27:41;16.80;;;11.17;;
19854;SDS011;10088;47.946;2.532;2022-11-30T16:30:07;19.50;;;11.40;;
19854;SDS011;10088;47.946;2.532;2022-11-30T16:32:33;16.90;;;11.67;;
19854;SDS011;10088;47.946;2.532;2022-11-30T16:34:58;19.83;;;11.40;;
19854;SDS011;10088;47.946;2.532;2022-11-30T16:37:24;20.87;;;11.30;;
19854;SDS011;10088;47.946;2.532;2022-11-30T16:39:49;20.80;;;11.43;;
19854;SDS011;10088;47.946;2.532;2022-11-30T16:42:14;18.83;;;10.63;;
19854;SDS011;10088;47.946;2.532;2022-11-30T16:44:39;21.90;;;11.97;;
19854;SDS011;10088;47.946;2.532;2022-11-30T16:47:05;19.20;;;11.33;;
19854;SDS011;10088;47.946;2.532;2022-11-30T16:49:30;19.20;;;11.00;;
19854;SDS011;10088;47.946;2.532;2022-11-30T16:51:55;21.03;;;12.23;;
19854;SDS011;10088;47.946;2.532;2022-11-30T16:54:21;17.77;;;11.60;;
19854;SDS011;10088;47.946;2.532;2022-11-30T16:56:46;20.37;;;11.70;;
19854;SDS011;10088;47.946;2.532;2022-11-30T16:59:11;20.53;;;11.83;;
19854;SDS011;10088;47.946;2.532;2022-11-30T17:01:43;19.47;;;11.80;;
19854;SDS011;10088;47.946;2.532;2022-11-30T17:04:17;15.70;;;10.83;;
19854;SDS011;10088;47.946;2.532;2022-11-30T17:06:43;17.77;;;10.70;;
19854;SDS011;10088;47.946;2.532;2022-11-30T17:09:12;18.40;;;11.20;;